METAR Data

Data at: 2153 UTC 01 Dec 2021

METAR for:KPVC (Provincetown Muni, MA, US)
Text:KPVC 012056Z AUTO 27007KT 10SM CLR 07/M02 A3012 RMK AO2 SLP199 T00721022 51012
Temperature: 7.2°C ( 45°F)
Dewpoint: -2.2°C ( 28°F) [RH = 51%]
Pressure (altimeter):30.12 inches Hg (1020.1 mb) [Sea level pressure: 1019.9 mb]
Winds:from the W (270 degrees) at 8 MPH (7 knots; 3.6 m/s)
Visibility:10 or more sm (16+ km)
Ceiling:at least 12,000 feet AGL
Clouds:sky clear below 12,000 feet AGL
QC Flag:automated observation with no human augmentation